Time;durP1;ratioP1;P1;durP2;ratioP2;P2;SDS_P1;SDS_P2;PMS_P1;PMS_P2;Temp;Humidity;BMP_temperature;BMP_pressure;BME280_temperature;BME280_humidity;BME280_pressure;Samples;Min_cycle;Max_cycle;Signal;HPM_P1;HPM_P2
2022/12/30 00:01:10;;;;;;;37.40;6.95;;;5.80;99.90;;;;;;4721558;30;20052;-81
2022/12/30 00:03:36;;;;;;;34.13;6.85;;;5.90;99.90;;;;;;4736124;30;20051;-81
2022/12/30 00:06:14;;;;;;;29.17;6.60;;;5.90;99.90;;;;;;4752194;30;20052;-82
2022/12/30 00:08:50;;;;;;;32.88;6.53;;;5.80;99.90;;;;;;4751702;30;20044;-81
2022/12/30 00:11:22;;;;;;;34.35;6.95;;;5.80;99.90;;;;;;4740782;30;20131;-81
2022/12/30 00:34:38;;;;;;;30.15;6.65;;;5.80;99.90;;;;;;4735428;30;20052;-81
2022/12/30 00:37:03;;;;;;;28.00;6.28;;;5.70;99.90;;;;;;4741895;30;20123;-81
2022/12/30 00:39:30;;;;;;;33.85;6.90;;;5.70;99.90;;;;;;4753545;30;20167;-81
2022/12/30 00:44:39;;;;;;;23.58;5.93;;;5.70;99.90;;;;;;4751802;30;20055;-81
2022/12/30 00:47:07;;;;;;;22.70;5.85;;;5.60;99.90;;;;;;4751856;30;20044;-82
2022/12/30 00:57:45;;;;;;;33.75;6.47;;;5.50;99.90;;;;;;4753181;30;20083;-81
2022/12/30 01:00:12;;;;;;;36.95;7.15;;;5.50;99.90;;;;;;4753267;30;20546;-82
2022/12/30 01:02:38;;;;;;;28.25;6.30;;;5.50;99.90;;;;;;4768822;30;20039;-82
2022/12/30 01:05:05;;;;;;;32.15;5.70;;;5.50;99.90;;;;;;4738522;30;20039;-81
2022/12/30 01:07:30;;;;;;;32.97;6.15;;;5.50;99.90;;;;;;4752470;30;20415;-82
2022/12/30 01:09:57;;;;;;;33.50;6.55;;;5.40;99.90;;;;;;4768183;30;20040;-81
2022/12/30 01:12:23;;;;;;;27.83;6.57;;;5.40;99.90;;;;;;4769471;30;20051;-81
2022/12/30 01:14:53;;;;;;;33.38;6.68;;;5.40;99.90;;;;;;4753134;30;20173;-82
2022/12/30 01:17:30;;;;;;;37.67;6.40;;;5.40;99.90;;;;;;4753141;30;20059;-81
2022/12/30 01:19:56;;;;;;;31.20;6.15;;;5.40;99.90;;;;;;4769092;30;20096;-81
2022/12/30 01:22:21;;;;;;;32.35;6.45;;;5.50;99.90;;;;;;4753000;30;20126;-81
2022/12/30 01:24:47;;;;;;;35.08;6.50;;;5.60;99.90;;;;;;4765349;30;20060;-82
2022/12/30 01:27:13;;;;;;;26.30;5.63;;;5.60;99.90;;;;;;4720737;30;20063;-82
2022/12/30 01:29:41;;;;;;;32.47;6.18;;;5.60;99.90;;;;;;4734724;30;20044;-81
2022/12/30 01:32:11;;;;;;;38.97;6.60;;;5.50;99.90;;;;;;4720034;30;20052;-82
2022/12/30 01:34:38;;;;;;;35.25;6.15;;;5.60;99.90;;;;;;4750587;30;20165;-82
2022/12/30 01:37:04;;;;;;;32.55;6.32;;;5.80;99.90;;;;;;4750776;30;20050;-82
2022/12/30 01:39:30;;;;;;;31.85;6.35;;;5.50;99.90;;;;;;4743241;30;20059;-82
2022/12/30 01:41:56;;;;;;;33.33;6.75;;;5.50;99.90;;;;;;4751119;30;20048;-81
2022/12/30 01:44:53;;;;;;;33.75;6.65;;;5.50;99.90;;;;;;4734824;30;20530;-82
2022/12/30 01:47:30;;;;;;;31.23;5.80;;;5.50;99.90;;;;;;4735657;30;20120;-80
2022/12/30 01:50:14;;;;;;;33.03;6.25;;;5.60;99.90;;;;;;4735768;30;20083;-81
2022/12/30 01:52:50;;;;;;;35.95;6.22;;;5.60;99.90;;;;;;4752441;30;20064;-81
2022/12/30 01:55:21;;;;;;;30.38;6.28;;;5.70;99.90;;;;;;4752593;30;20047;-82
2022/12/30 01:57:50;;;;;;;35.72;6.40;;;5.60;99.90;;;;;;4768309;30;20055;-81
2022/12/30 02:00:16;;;;;;;28.92;5.47;;;5.70;99.90;;;;;;4737748;30;20082;-82
2022/12/30 02:02:42;;;;;;;29.05;5.80;;;5.60;99.90;;;;;;4752128;30;20545;-81
2022/12/30 02:05:09;;;;;;;27.55;5.80;;;5.60;99.90;;;;;;4751713;30;20052;-80
2022/12/30 02:07:44;;;;;;;33.05;6.20;;;5.60;99.90;;;;;;4767221;30;20118;-80
2022/12/30 02:10:11;;;;;;;35.30;6.50;;;5.60;99.90;;;;;;4769235;30;20085;-80
2022/12/30 02:12:37;;;;;;;34.78;6.35;;;5.60;99.90;;;;;;4752689;30;20367;-81
2022/12/30 02:15:04;;;;;;;35.78;6.63;;;5.60;99.90;;;;;;4752604;30;20056;-82
2022/12/30 02:17:38;;;;;;;36.13;6.07;;;5.60;99.90;;;;;;4753353;30;20196;-82
2022/12/30 02:20:28;;;;;;;32.55;5.93;;;5.50;99.90;;;;;;4752950;30;20406;-81
2022/12/30 02:23:29;;;;;;;28.98;6.22;;;5.50;99.90;;;;;;4752360;30;20519;-82
2022/12/30 02:26:21;;;;;;;31.27;5.95;;;5.50;99.90;;;;;;4753138;30;20051;-82
2022/12/30 02:29:05;;;;;;;26.58;6.25;;;5.50;99.90;;;;;;4768812;30;20507;-82
2022/12/30 02:32:06;;;;;;;30.70;6.03;;;5.40;99.90;;;;;;4752615;30;20139;-82
2022/12/30 02:34:35;;;;;;;23.17;5.18;;;5.40;99.90;;;;;;4715091;30;20091;-82
2022/12/30 02:37:28;;;;;;;34.28;6.63;;;5.30;99.90;;;;;;4752558;30;20051;-81
2022/12/30 02:40:03;;;;;;;38.95;6.72;;;5.30;99.90;;;;;;4752353;30;20101;-81
2022/12/30 02:45:36;;;;;;;33.10;6.00;;;5.20;99.90;;;;;;4771225;30;20051;-82
2022/12/30 02:48:03;;;;;;;37.40;6.68;;;5.20;99.90;;;;;;4756777;30;20063;-81
2022/12/30 02:53:21;;;;;;;38.13;6.63;;;5.10;99.90;;;;;;4771810;30;20068;-81
2022/12/30 02:55:48;;;;;;;29.05;6.10;;;5.10;99.90;;;;;;4756144;30;20113;-82
2022/12/30 02:58:14;;;;;;;28.75;6.10;;;5.00;99.90;;;;;;4755978;30;20048;-82
2022/12/30 03:04:05;;;;;;;30.90;5.90;;;5.00;99.90;;;;;;4755614;30;20059;-81
2022/12/30 03:07:12;;;;;;;35.72;6.18;;;5.00;99.90;;;;;;4756363;30;20075;-82
2022/12/30 03:09:37;;;;;;;35.90;6.60;;;5.00;99.90;;;;;;4752668;30;20096;-82
2022/12/30 03:12:24;;;;;;;34.65;6.70;;;5.00;99.90;;;;;;4755761;30;20130;-83
2022/12/30 03:15:01;;;;;;;34.45;6.40;;;5.00;99.90;;;;;;4772072;30;20047;-83
2022/12/30 03:17:32;;;;;;;33.25;6.68;;;4.90;99.90;;;;;;4771659;30;20083;-82
2022/12/30 03:20:02;;;;;;;34.17;6.85;;;4.90;99.90;;;;;;4771164;30;20410;-82
2022/12/30 03:28:06;;;;;;;28.83;7.47;;;4.90;99.90;;;;;;4738314;30;20055;-82
2022/12/30 03:30:35;;;;;;;37.95;8.35;;;4.80;99.90;;;;;;4754062;30;20044;-83
2022/12/30 03:33:02;;;;;;;29.08;6.55;;;4.80;99.90;;;;;;4753736;30;20182;-83
2022/12/30 03:35:31;;;;;;;35.30;7.25;;;4.80;99.90;;;;;;4737635;30;20174;-82
2022/12/30 03:37:58;;;;;;;31.90;6.95;;;4.80;99.90;;;;;;4758782;30;20070;-83
2022/12/30 03:40:29;;;;;;;40.50;7.03;;;4.80;99.90;;;;;;4756264;30;20056;-83
2022/12/30 03:42:55;;;;;;;30.92;7.10;;;4.80;99.90;;;;;;4755645;30;20048;-82
2022/12/30 03:45:21;;;;;;;42.28;7.18;;;4.70;99.90;;;;;;4772665;30;20054;-83
2022/12/30 03:47:47;;;;;;;35.70;7.47;;;4.70;99.90;;;;;;4756899;30;20043;-83
2022/12/30 03:50:13;;;;;;;35.65;7.75;;;4.80;99.90;;;;;;4742185;30;20542;-83
2022/12/30 03:52:38;;;;;;;35.35;7.40;;;4.70;99.90;;;;;;4741190;30;20064;-82
2022/12/30 03:55:05;;;;;;;30.80;5.93;;;4.80;99.90;;;;;;4771212;30;20149;-82
2022/12/30 03:57:31;;;;;;;32.00;6.88;;;4.70;99.90;;;;;;4771147;30;20100;-82
2022/12/30 03:59:56;;;;;;;31.23;6.65;;;4.70;99.90;;;;;;4755491;30;20047;-82
2022/12/30 04:02:22;;;;;;;33.45;6.10;;;5.30;99.90;;;;;;4755025;30;20040;-82
2022/12/30 04:04:48;;;;;;;30.55;7.15;;;4.70;99.90;;;;;;4754836;30;20047;-83
2022/12/30 04:07:13;;;;;;;36.20;7.35;;;4.70;99.90;;;;;;4755519;30;20052;-82
2022/12/30 04:09:39;;;;;;;33.25;6.93;;;4.70;99.90;;;;;;4754976;30;20047;-83
2022/12/30 04:12:05;;;;;;;32.28;6.68;;;4.70;99.90;;;;;;4754682;30;20061;-82
2022/12/30 04:14:30;;;;;;;31.83;6.75;;;4.70;99.90;;;;;;4754778;30;20491;-82
2022/12/30 04:16:56;;;;;;;26.05;6.22;;;4.70;99.90;;;;;;4771047;30;20055;-82
2022/12/30 04:19:22;;;;;;;29.58;6.63;;;4.70;99.90;;;;;;4754654;30;20047;-82
2022/12/30 04:21:47;;;;;;;30.60;6.35;;;4.90;99.90;;;;;;4740572;30;20388;-82
2022/12/30 04:24:13;;;;;;;36.80;6.60;;;4.70;99.90;;;;;;4754914;30;20499;-82
2022/12/30 04:26:39;;;;;;;25.35;6.55;;;4.80;99.90;;;;;;4754722;30;20052;-81
2022/12/30 04:29:04;;;;;;;32.58;6.78;;;4.70;99.90;;;;;;4754854;30;20079;-81
2022/12/30 04:31:30;;;;;;;29.17;6.45;;;4.70;99.90;;;;;;4754668;30;20054;-82
2022/12/30 04:33:56;;;;;;;30.90;6.95;;;4.70;99.90;;;;;;4754556;30;20044;-81
2022/12/30 04:36:21;;;;;;;36.88;6.32;;;4.70;99.90;;;;;;4754731;30;20510;-82
2022/12/30 04:38:47;;;;;;;28.58;6.20;;;4.70;99.90;;;;;;4754126;30;20495;-82
2022/12/30 04:41:13;;;;;;;22.27;5.75;;;4.70;99.90;;;;;;4754423;30;20050;-81
2022/12/30 04:43:39;;;;;;;32.92;6.97;;;4.70;99.90;;;;;;4770645;30;20491;-83
2022/12/30 04:46:05;;;;;;;32.33;6.88;;;4.80;99.90;;;;;;4771195;30;20178;-82
2022/12/30 04:48:31;;;;;;;40.60;8.45;;;4.80;99.90;;;;;;4754177;30;20102;-81
2022/12/30 04:50:57;;;;;;;32.83;7.63;;;4.80;99.90;;;;;;4754429;30;20082;-82
2022/12/30 04:53:22;;;;;;;25.58;6.28;;;4.80;99.90;;;;;;4769945;30;20521;-82
2022/12/30 04:55:52;;;;;;;29.75;7.50;;;4.80;99.90;;;;;;4753618;30;20150;-81
2022/12/30 04:58:18;;;;;;;28.77;6.72;;;4.90;99.90;;;;;;4770073;30;20056;-81
2022/12/30 05:00:44;;;;;;;29.80;7.25;;;4.80;99.90;;;;;;4739092;30;20064;-83
2022/12/30 05:03:09;;;;;;;27.05;8.55;;;4.90;99.90;;;;;;4738894;30;20054;-82
2022/12/30 05:05:35;;;;;;;26.85;7.30;;;4.90;99.90;;;;;;4753332;30;20048;-82
2022/12/30 05:08:01;;;;;;;33.88;8.38;;;4.90;99.90;;;;;;4738667;30;20051;-81
2022/12/30 05:10:26;;;;;;;27.30;7.65;;;4.90;99.90;;;;;;4754287;30;20096;-81
2022/12/30 05:12:52;;;;;;;29.52;8.10;;;5.00;99.90;;;;;;4769913;30;20487;-81
2022/12/30 05:15:17;;;;;;;30.52;8.38;;;4.90;99.90;;;;;;4769200;30;20123;-81
2022/12/30 05:17:43;;;;;;;29.35;8.25;;;5.00;99.90;;;;;;4770173;30;20071;-81
2022/12/30 05:20:09;;;;;;;27.35;8.65;;;5.00;99.90;;;;;;4754803;30;20376;-80
2022/12/30 05:22:35;;;;;;;32.50;7.93;;;5.00;99.90;;;;;;4770255;30;20040;-81
2022/12/30 05:27:44;;;;;;;36.42;7.63;;;4.90;99.90;;;;;;4754591;30;20058;-80
2022/12/30 05:30:10;;;;;;;28.65;7.85;;;4.90;99.90;;;;;;4754394;30;20465;-82
2022/12/30 05:32:36;;;;;;;26.77;7.65;;;4.90;99.90;;;;;;4770782;30;20036;-82
2022/12/30 05:35:02;;;;;;;29.70;7.90;;;4.90;99.90;;;;;;4739967;30;20059;-82
2022/12/30 05:37:27;;;;;;;22.30;8.55;;;4.80;99.90;;;;;;4740474;30;20130;-82
2022/12/30 05:39:53;;;;;;;28.25;7.85;;;4.70;99.90;;;;;;4740707;30;20082;-81
2022/12/30 05:42:18;;;;;;;24.25;7.60;;;4.70;99.90;;;;;;4755039;30;20055;-83
2022/12/30 05:44:45;;;;;;;24.60;8.10;;;4.70;99.90;;;;;;4769681;30;20130;-81
2022/12/30 05:47:10;;;;;;;27.25;7.88;;;4.60;99.90;;;;;;4769293;30;20101;-82
2022/12/30 05:49:36;;;;;;;33.33;8.52;;;4.60;99.90;;;;;;4752902;30;20498;-82
2022/12/30 05:52:01;;;;;;;27.88;7.25;;;4.60;99.90;;;;;;4752690;30;20040;-82
2022/12/30 05:54:27;;;;;;;25.23;7.90;;;4.50;99.90;;;;;;4752829;30;20109;-81
2022/12/30 05:56:52;;;;;;;25.65;7.78;;;4.50;99.90;;;;;;4769035;30;20514;-82
2022/12/30 05:59:18;;;;;;;23.38;7.78;;;4.40;99.90;;;;;;4752393;30;20039;-81
2022/12/30 06:01:44;;;;;;;25.95;8.75;;;4.40;99.90;;;;;;4753020;30;20105;-82
2022/12/30 06:04:09;;;;;;;30.00;7.88;;;4.40;99.90;;;;;;4752643;30;20043;-81
2022/12/30 06:06:35;;;;;;;30.33;8.88;;;4.40;99.90;;;;;;4769159;30;20044;-81
2022/12/30 06:09:01;;;;;;;26.73;7.30;;;4.40;99.90;;;;;;4769419;30;20048;-82
2022/12/30 06:11:26;;;;;;;24.52;7.00;;;4.30;99.90;;;;;;4753492;30;20082;-84
2022/12/30 06:13:52;;;;;;;25.15;7.78;;;4.40;99.90;;;;;;4769173;30;20054;-81
2022/12/30 06:16:18;;;;;;;26.45;7.40;;;4.30;99.90;;;;;;4752839;30;20101;-82
2022/12/30 06:18:43;;;;;;;29.60;7.40;;;4.30;99.90;;;;;;4768761;30;20047;-82
2022/12/30 06:21:09;;;;;;;30.33;7.10;;;4.30;99.90;;;;;;4769322;30;20116;-82
2022/12/30 06:23:35;;;;;;;29.15;7.72;;;4.30;99.90;;;;;;4752685;30;20446;-82
2022/12/30 06:26:00;;;;;;;24.40;6.63;;;4.20;99.90;;;;;;4752692;30;20048;-82
2022/12/30 06:28:28;;;;;;;25.27;6.22;;;4.30;99.90;;;;;;4769052;30;20063;-82
2022/12/30 06:30:54;;;;;;;24.20;6.65;;;4.20;99.90;;;;;;4753188;30;20151;-82
2022/12/30 06:33:20;;;;;;;26.75;7.95;;;4.20;99.90;;;;;;4752928;30;20142;-81
2022/12/30 06:35:47;;;;;;;24.13;6.53;;;4.20;99.90;;;;;;4752687;30;20091;-83
2022/12/30 06:38:13;;;;;;;25.10;7.95;;;4.40;99.90;;;;;;4769010;30;20090;-82
2022/12/30 06:40:38;;;;;;;21.58;6.43;;;4.20;99.90;;;;;;4753031;30;20227;-81
2022/12/30 06:43:04;;;;;;;26.45;6.32;;;4.10;99.90;;;;;;4752634;30;20048;-82
2022/12/30 06:45:30;;;;;;;26.23;7.07;;;4.10;99.90;;;;;;4738651;30;20046;-81
2022/12/30 06:47:56;;;;;;;28.52;6.38;;;4.20;99.90;;;;;;4753217;30;20055;-82
2022/12/30 06:50:21;;;;;;;29.77;6.60;;;4.10;99.90;;;;;;4753628;30;20036;-83
2022/12/30 06:52:47;;;;;;;31.77;6.88;;;4.10;99.90;;;;;;4769261;30;20048;-82
2022/12/30 06:55:13;;;;;;;26.35;6.13;;;4.10;99.90;;;;;;4769591;30;20056;-82
2022/12/30 06:57:38;;;;;;;31.20;6.63;;;4.10;99.90;;;;;;4738566;30;20051;-83
2022/12/30 07:00:06;;;;;;;27.88;5.72;;;4.00;99.90;;;;;;4769653;30;20101;-82
2022/12/30 07:02:32;;;;;;;28.15;6.18;;;4.00;99.90;;;;;;4753272;30;20051;-80
2022/12/30 07:04:58;;;;;;;24.17;6.28;;;4.60;99.90;;;;;;4753422;30;20039;-80
2022/12/30 07:07:24;;;;;;;28.73;6.40;;;4.10;99.90;;;;;;4767560;30;20046;-81
2022/12/30 07:09:49;;;;;;;28.50;6.78;;;4.00;99.90;;;;;;4750617;30;20733;-81
2022/12/30 07:12:16;;;;;;;28.95;6.05;;;4.30;99.90;;;;;;4750682;30;20048;-82
2022/12/30 07:14:42;;;;;;;25.63;6.07;;;4.00;99.90;;;;;;4750724;30;20044;-81
2022/12/30 07:17:07;;;;;;;27.48;5.90;;;4.00;99.90;;;;;;4745229;30;20048;-82
2022/12/30 07:19:33;;;;;;;28.05;5.78;;;4.00;99.90;;;;;;4754007;30;20127;-81
2022/12/30 07:21:58;;;;;;;26.00;6.15;;;4.00;99.90;;;;;;4750640;30;20048;-81
2022/12/30 07:24:24;;;;;;;26.15;5.72;;;4.20;99.90;;;;;;4750549;30;20048;-82
2022/12/30 07:26:50;;;;;;;25.08;6.28;;;3.90;99.90;;;;;;4764906;30;20487;-82
2022/12/30 07:29:15;;;;;;;26.92;6.25;;;3.90;99.90;;;;;;4746542;30;20539;-81
2022/12/30 07:31:41;;;;;;;26.50;6.22;;;3.90;99.90;;;;;;4745091;30;20080;-81
2022/12/30 07:34:07;;;;;;;27.05;6.47;;;3.90;99.90;;;;;;4751122;30;20135;-81
2022/12/30 07:36:33;;;;;;;29.00;6.93;;;3.90;99.90;;;;;;4737371;30;20056;-82
2022/12/30 07:38:59;;;;;;;32.67;6.25;;;4.00;99.90;;;;;;4752813;30;20048;-82
2022/12/30 07:41:25;;;;;;;29.02;6.68;;;4.00;99.90;;;;;;4752172;30;20098;-81
2022/12/30 07:43:51;;;;;;;36.95;7.45;;;4.00;99.90;;;;;;4752067;30;20047;-81
2022/12/30 07:46:17;;;;;;;25.73;6.07;;;4.00;99.90;;;;;;4768355;30;20048;-82
2022/12/30 07:48:43;;;;;;;25.40;6.45;;;4.00;99.90;;;;;;4739656;30;20123;-82
2022/12/30 07:51:10;;;;;;;29.38;7.45;;;4.00;99.90;;;;;;4736146;30;20154;-82
2022/12/30 07:53:36;;;;;;;22.33;5.38;;;4.00;99.90;;;;;;4721303;30;20520;-81
2022/12/30 07:56:04;;;;;;;32.22;6.10;;;4.00;99.90;;;;;;4735450;30;20080;-81
2022/12/30 07:58:30;;;;;;;27.67;5.88;;;4.10;99.90;;;;;;4735225;30;20556;-81
2022/12/30 08:00:55;;;;;;;30.85;6.78;;;4.00;99.90;;;;;;4751711;30;20048;-80
2022/12/30 08:03:21;;;;;;;28.10;5.45;;;4.00;99.90;;;;;;4751791;30;20040;-81
2022/12/30 08:05:46;;;;;;;20.25;5.82;;;4.10;99.90;;;;;;4758743;30;20491;-82
2022/12/30 08:08:12;;;;;;;24.83;6.13;;;4.00;99.90;;;;;;4751602;30;20054;-82
2022/12/30 08:10:37;;;;;;;22.02;6.15;;;4.00;99.90;;;;;;4763095;30;20035;-82
2022/12/30 08:13:03;;;;;;;34.92;6.47;;;4.00;99.90;;;;;;4754935;30;20517;-83
2022/12/30 08:15:29;;;;;;;32.45;6.43;;;4.00;99.90;;;;;;4746494;30;20043;-82
2022/12/30 08:17:56;;;;;;;33.47;6.38;;;4.10;99.90;;;;;;4748492;30;20415;-82
2022/12/30 08:20:22;;;;;;;23.83;6.75;;;4.10;99.90;;;;;;4768017;30;20065;-82
2022/12/30 08:22:47;;;;;;;26.33;6.65;;;4.10;99.90;;;;;;4763341;30;20126;-80
2022/12/30 08:25:13;;;;;;;29.65;6.65;;;4.10;99.90;;;;;;4737956;30;20127;-81
2022/12/30 08:27:38;;;;;;;28.55;6.40;;;4.10;99.90;;;;;;4752868;30;20079;-82
2022/12/30 08:30:05;;;;;;;23.48;6.03;;;4.20;99.90;;;;;;4768512;30;20040;-81
2022/12/30 08:32:30;;;;;;;24.98;5.65;;;4.20;99.90;;;;;;4750175;30;20538;-81
2022/12/30 08:34:56;;;;;;;17.25;5.18;;;4.30;99.90;;;;;;4767951;30;20166;-81
2022/12/30 08:37:21;;;;;;;25.50;6.03;;;4.30;99.90;;;;;;4749801;30;20040;-82
2022/12/30 08:39:47;;;;;;;26.00;5.63;;;4.30;99.90;;;;;;4743055;30;20112;-81
2022/12/30 08:42:13;;;;;;;25.10;5.50;;;4.30;99.90;;;;;;4740539;30;20406;-81
2022/12/30 08:44:38;;;;;;;19.70;5.68;;;4.30;99.90;;;;;;4752086;30;20109;-81
2022/12/30 08:47:04;;;;;;;27.85;5.15;;;4.40;99.90;;;;;;4745342;30;20555;-81
2022/12/30 08:49:31;;;;;;;27.88;6.30;;;4.40;99.90;;;;;;4738952;30;20044;-81
2022/12/30 08:51:56;;;;;;;24.48;6.22;;;4.50;99.90;;;;;;4752290;30;20544;-81
2022/12/30 08:54:22;;;;;;;17.20;5.55;;;4.50;99.90;;;;;;4751868;30;20063;-81
2022/12/30 08:56:48;;;;;;;25.65;6.20;;;4.50;99.90;;;;;;4752348;30;20101;-81
2022/12/30 08:59:14;;;;;;;27.58;5.38;;;4.50;99.90;;;;;;4768216;30;20047;-82
2022/12/30 09:01:41;;;;;;;20.50;5.30;;;4.60;99.90;;;;;;4768109;30;20465;-82
2022/12/30 09:04:08;;;;;;;20.83;4.78;;;4.60;99.90;;;;;;4751638;30;20368;-82
2022/12/30 09:06:37;;;;;;;21.38;5.82;;;4.70;99.90;;;;;;4765233;30;20079;-83
2022/12/30 09:09:04;;;;;;;25.70;5.30;;;4.70;99.90;;;;;;4750107;30;20537;-81
2022/12/30 09:11:32;;;;;;;26.15;6.13;;;4.80;99.90;;;;;;4751305;30;20044;-85
2022/12/30 09:14:00;;;;;;;24.00;5.32;;;4.80;99.90;;;;;;4762514;30;20106;-82
2022/12/30 09:16:27;;;;;;;23.30;6.00;;;4.80;99.90;;;;;;4736654;30;20059;-82
2022/12/30 09:18:53;;;;;;;21.23;5.78;;;4.80;99.90;;;;;;4751579;30;20055;-82
2022/12/30 09:21:19;;;;;;;22.45;5.57;;;4.80;99.90;;;;;;4751316;30;20043;-82
2022/12/30 09:23:45;;;;;;;22.45;6.18;;;4.90;99.90;;;;;;4741737;30;20049;-82
2022/12/30 09:26:18;;;;;;;23.77;6.70;;;4.90;99.90;;;;;;4748067;30;20056;-80
2022/12/30 09:28:43;;;;;;;25.67;6.18;;;5.00;99.90;;;;;;4747141;30;20036;-81
2022/12/30 09:31:09;;;;;;;20.52;5.78;;;5.00;99.90;;;;;;4745010;30;20703;-80
2022/12/30 09:33:35;;;;;;;28.02;6.32;;;5.10;99.90;;;;;;4768038;30;20083;-80
2022/12/30 09:36:01;;;;;;;17.48;5.90;;;5.10;99.90;;;;;;4752066;30;20044;-81
2022/12/30 09:38:26;;;;;;;23.20;5.88;;;5.10;99.90;;;;;;4756045;30;20056;-81
2022/12/30 09:41:03;;;;;;;18.50;5.88;;;5.20;99.90;;;;;;4734832;30;20048;-81
2022/12/30 09:43:50;;;;;;;20.60;6.47;;;5.20;99.90;;;;;;4767078;30;20118;-80
2022/12/30 09:46:41;;;;;;;17.20;5.85;;;5.30;99.90;;;;;;4736937;30;20056;-80
2022/12/30 09:49:15;;;;;;;28.55;6.07;;;5.30;99.90;;;;;;4750790;30;20056;-78
2022/12/30 09:51:47;;;;;;;16.92;5.20;;;5.40;99.90;;;;;;4742180;30;20043;-79
2022/12/30 09:54:20;;;;;;;18.52;5.45;;;5.40;99.90;;;;;;4766776;30;20510;-80
2022/12/30 09:56:50;;;;;;;16.40;5.47;;;5.40;99.90;;;;;;4734357;30;20074;-81
2022/12/30 09:59:41;;;;;;;19.30;4.80;;;5.50;99.90;;;;;;4734364;30;20082;-81
2022/12/30 10:02:21;;;;;;;22.20;5.63;;;6.00;99.90;;;;;;4736248;30;20059;-81
2022/12/30 10:04:47;;;;;;;20.67;5.13;;;5.60;99.90;;;;;;4726796;30;20063;-81
2022/12/30 10:07:51;;;;;;;18.27;4.70;;;5.60;99.90;;;;;;4765524;30;20048;-79
2022/12/30 10:10:45;;;;;;;20.35;5.18;;;5.70;99.90;;;;;;4766103;30;20542;-86
2022/12/30 10:13:19;;;;;;;;;;;5.80;99.90;;;;;;4747976;30;20145;-84
2022/12/30 10:16:32;;;;;;;16.30;4.18;;;5.80;99.90;;;;;;4745066;30;19949;-84
2022/12/30 10:19:10;;;;;;;17.67;4.75;;;5.90;99.90;;;;;;4686905;30;20128;-87
2022/12/30 10:21:55;;;;;;;13.52;4.35;;;5.90;99.90;;;;;;4680043;30;20065;-85
2022/12/30 10:24:26;;;;;;;14.88;4.53;;;6.00;99.90;;;;;;4679656;30;20572;-86
2022/12/30 10:26:53;;;;;;;20.92;4.68;;;6.00;99.90;;;;;;4695480;30;20064;-91
2022/12/30 10:29:30;;;;;;;20.58;4.82;;;6.10;99.90;;;;;;4678852;30;20532;-82
2022/12/30 10:31:57;;;;;;;14.80;4.50;;;6.10;99.90;;;;;;4679525;30;20044;-80
2022/12/30 10:34:30;;;;;;;14.15;4.53;;;6.20;99.90;;;;;;4678997;30;20144;-80
2022/12/30 10:36:59;;;;;;;15.70;4.65;;;6.20;99.90;;;;;;4705831;30;20057;-84
2022/12/30 10:39:45;;;;;;;12.27;3.80;;;6.30;99.90;;;;;;4693404;30;20057;-84
2022/12/30 10:42:27;;;;;;;16.30;4.07;;;6.30;99.90;;;;;;4679342;30;20062;-82
2022/12/30 10:45:18;;;;;;;17.48;4.53;;;6.40;99.90;;;;;;4679076;30;20053;-80
2022/12/30 10:48:11;;;;;;;13.60;3.70;;;6.60;99.90;;;;;;4693649;30;20181;-80
2022/12/30 10:50:43;;;;;;;15.60;3.90;;;6.50;99.90;;;;;;4692516;30;20045;-82
2022/12/30 10:53:21;;;;;;;13.77;4.47;;;6.50;99.90;;;;;;4729698;30;20052;-80
2022/12/30 10:55:58;;;;;;;10.27;3.05;;;6.60;99.90;;;;;;4740462;30;20056;-81
2022/12/30 10:58:26;;;;;;;9.45;3.53;;;6.70;99.90;;;;;;4730249;30;20131;-81
2022/12/30 11:00:52;;;;;;;15.35;3.60;;;6.80;99.90;;;;;;4740086;30;20052;-79
2022/12/30 11:03:30;;;;;;;10.95;3.38;;;6.70;99.90;;;;;;4719123;30;20417;-81
2022/12/30 11:05:57;;;;;;;9.73;3.20;;;6.70;99.90;;;;;;4760615;30;20058;-81
2022/12/30 11:08:28;;;;;;;9.82;3.45;;;6.80;99.90;;;;;;4752694;30;20402;-81
2022/12/30 11:11:04;;;;;;;11.98;3.28;;;6.80;99.90;;;;;;4747010;30;20046;-81
2022/12/30 11:16:21;;;;;;;13.25;3.42;;;6.80;99.90;;;;;;4746139;30;20139;-84
2022/12/30 11:18:47;;;;;;;11.82;3.15;;;6.80;99.90;;;;;;4745980;30;20507;-82
2022/12/30 11:21:22;;;;;;;14.20;3.30;;;6.80;99.90;;;;;;4765629;30;20059;-82
2022/12/30 11:23:53;;;;;;;12.40;3.40;;;6.90;99.90;;;;;;4748169;30;20051;-82
2022/12/30 11:26:21;;;;;;;10.13;2.72;;;6.80;99.90;;;;;;4745031;30;20059;-82
2022/12/30 11:28:52;;;;;;;10.55;3.17;;;6.90;99.90;;;;;;4748359;30;20111;-82
2022/12/30 11:31:19;;;;;;;11.35;3.67;;;6.90;99.90;;;;;;4743393;30;20054;-83
2022/12/30 11:33:52;;;;;;;14.45;3.63;;;6.90;99.90;;;;;;4752275;30;20043;-82
2022/12/30 11:36:31;;;;;;;11.07;3.10;;;7.00;99.90;;;;;;4747318;30;20047;-82
2022/12/30 11:39:03;;;;;;;10.95;3.15;;;7.00;99.90;;;;;;4750354;30;20048;-81
2022/12/30 11:41:29;;;;;;;8.88;3.17;;;7.10;99.90;;;;;;4761101;30;20035;-83
2022/12/30 11:43:58;;;;;;;8.52;3.20;;;7.20;99.90;;;;;;4740146;30;20093;-82
2022/12/30 11:46:45;;;;;;;12.40;3.00;;;7.20;99.90;;;;;;4758692;30;20044;-82
2022/12/30 11:49:20;;;;;;;8.48;3.33;;;7.20;99.90;;;;;;4770429;30;20067;-82
2022/12/30 11:51:50;;;;;;;9.73;3.50;;;7.30;99.90;;;;;;4758033;30;20052;-82
2022/12/30 11:54:17;;;;;;;9.88;3.58;;;7.30;99.90;;;;;;4735614;30;20064;-82
2022/12/30 11:56:58;;;;;;;9.57;4.03;;;7.40;99.90;;;;;;4751212;30;20056;-82
2022/12/30 11:59:46;;;;;;;11.13;3.58;;;7.40;99.90;;;;;;4734554;30;20170;-82
2022/12/30 12:02:20;;;;;;;10.50;3.78;;;7.50;99.90;;;;;;4741364;30;20453;-82
2022/12/30 12:04:47;;;;;;;14.90;4.00;;;7.50;99.90;;;;;;4737929;30;20074;-81
2022/12/30 12:07:15;;;;;;;10.07;3.45;;;7.40;99.90;;;;;;4747389;30;20380;-82
2022/12/30 12:09:47;;;;;;;10.25;3.05;;;7.50;99.90;;;;;;4752839;30;20131;-80
2022/12/30 12:12:16;;;;;;;11.40;3.15;;;7.50;99.90;;;;;;4753261;30;20067;-81
2022/12/30 12:15:06;;;;;;;9.38;2.90;;;7.50;99.90;;;;;;4752296;30;20051;-81
2022/12/30 12:17:46;;;;;;;9.05;2.88;;;7.60;99.90;;;;;;4752345;30;20051;-82
2022/12/30 12:20:27;;;;;;;10.02;2.90;;;7.60;99.90;;;;;;4766294;30;20056;-83
2022/12/30 12:22:59;;;;;;;12.27;3.20;;;7.60;99.90;;;;;;4769929;30;20059;-83
2022/12/30 12:25:30;;;;;;;9.80;2.80;;;7.60;99.90;;;;;;4743049;30;20113;-83
2022/12/30 12:27:56;;;;;;;9.60;2.83;;;7.60;99.90;;;;;;4742217;30;20048;-82
2022/12/30 12:30:22;;;;;;;7.78;2.85;;;7.70;99.90;;;;;;4743562;30;20044;-83
2022/12/30 12:32:53;;;;;;;13.27;3.60;;;7.90;99.90;;;;;;4759397;30;20152;-82
2022/12/30 12:35:35;;;;;;;13.20;2.95;;;7.80;99.90;;;;;;4758703;30;20055;-82
2022/12/30 12:38:38;;;;;;;9.93;3.17;;;7.80;99.90;;;;;;4764532;30;20048;-83
2022/12/30 12:41:31;;;;;;;7.85;3.00;;;7.80;99.90;;;;;;4738032;30;20055;-84
2022/12/30 12:44:15;;;;;;;11.65;3.40;;;7.80;99.90;;;;;;4751848;30;20062;-82
2022/12/30 12:47:06;;;;;;;7.25;2.65;;;7.90;99.90;;;;;;4736202;30;20056;-84
2022/12/30 12:49:31;;;;;;;11.13;3.00;;;7.90;99.90;;;;;;4744904;30;20495;-82
2022/12/30 12:52:35;;;;;;;8.65;2.75;;;7.90;99.90;;;;;;4752487;30;20066;-83
2022/12/30 12:55:32;;;;;;;9.75;3.05;;;8.00;99.90;;;;;;4760640;30;20437;-83
2022/12/30 12:58:21;;;;;;;8.90;2.92;;;8.00;99.90;;;;;;4737254;30;20503;-83
2022/12/30 13:01:03;;;;;;;10.55;2.70;;;8.00;99.90;;;;;;4767475;30;20101;-83
2022/12/30 13:03:34;;;;;;;12.82;2.95;;;8.00;99.90;;;;;;4746950;30;20043;-83
2022/12/30 13:06:05;;;;;;;11.52;2.60;;;8.10;99.90;;;;;;4746845;30;20097;-83
2022/12/30 13:09:10;;;;;;;6.97;2.85;;;8.00;99.90;;;;;;4762196;30;20044;-83
2022/12/30 13:11:58;;;;;;;9.73;3.15;;;8.10;99.90;;;;;;4739553;30;20093;-85
2022/12/30 13:14:33;;;;;;;10.70;3.70;;;8.10;99.90;;;;;;4744983;30;20060;-83
2022/12/30 13:17:02;;;;;;;8.50;2.80;;;8.10;99.90;;;;;;4732789;30;20055;-85
2022/12/30 13:19:32;;;;;;;9.55;2.78;;;8.10;99.90;;;;;;4748053;30;20110;-85
2022/12/30 13:22:04;;;;;;;9.18;2.80;;;8.40;99.90;;;;;;4729899;30;20097;-86
2022/12/30 13:24:38;;;;;;;12.38;3.08;;;8.10;99.90;;;;;;4774877;30;20050;-84
2022/12/30 13:27:07;;;;;;;8.73;2.47;;;8.20;99.90;;;;;;4737423;30;20065;-85
2022/12/30 13:29:37;;;;;;;11.63;2.53;;;8.20;99.90;;;;;;4756507;30;20051;-85
2022/12/30 13:32:27;;;;;;;11.65;2.97;;;8.70;99.90;;;;;;4757224;30;20138;-84
2022/12/30 13:35:01;;;;;;;11.95;2.90;;;8.40;99.90;;;;;;4756730;30;20040;-84
2022/12/30 13:37:39;;;;;;;7.43;3.25;;;8.30;99.90;;;;;;4753482;30;20106;-85
2022/12/30 13:40:16;;;;;;;9.30;2.40;;;8.30;99.90;;;;;;4766044;30;20513;-84
2022/12/30 13:43:09;;;;;;;10.93;4.35;;;8.30;99.90;;;;;;4755997;30;20055;-84
2022/12/30 13:45:41;;;;;;;8.65;2.60;;;8.30;99.90;;;;;;4741519;30;20048;-85
2022/12/30 13:48:10;;;;;;;7.45;2.60;;;8.30;99.90;;;;;;4754592;30;20043;-83
2022/12/30 13:50:38;;;;;;;10.75;2.95;;;8.40;99.90;;;;;;4771890;30;20458;-85
2022/12/30 13:53:24;;;;;;;11.82;3.00;;;8.50;99.90;;;;;;4745460;30;20476;-85
2022/12/30 13:55:51;;;;;;;9.85;3.03;;;8.40;99.90;;;;;;4731929;30;20060;-84
2022/12/30 13:58:23;;;;;;;8.82;2.83;;;8.40;99.90;;;;;;4726750;30;20056;-84